createdAt,value
2019-04-14T00:02:05.307Z,8.07
2019-04-14T00:04:35.561Z,7.83
2019-04-14T00:07:01.771Z,7.37
2019-04-14T00:09:27.824Z,7.83
2019-04-14T00:11:54.792Z,8.13
2019-04-14T00:14:22.784Z,7.80
2019-04-14T00:16:49.477Z,7.40
2019-04-14T00:19:15.575Z,7.33
2019-04-14T00:21:43.200Z,7.30
2019-04-14T00:24:09.947Z,7.33
2019-04-14T00:26:37.915Z,7.70
2019-04-14T00:29:06.801Z,8.40
2019-04-14T00:31:34.924Z,7.37
2019-04-14T00:34:07.249Z,8.00
2019-04-14T00:36:39.412Z,8.17
2019-04-14T00:39:09.595Z,8.37
2019-04-14T00:41:46.695Z,7.77
2019-04-14T00:44:25.444Z,8.00
2019-04-14T00:46:53.873Z,7.73
2019-04-14T00:49:20.295Z,7.70
2019-04-14T00:51:46.369Z,7.90
2019-04-14T00:54:13.267Z,8.23
2019-04-14T00:56:41.096Z,7.67
2019-04-14T00:59:07.908Z,7.90
2019-04-14T01:01:34.805Z,7.90
2019-04-14T01:04:01.915Z,8.43
2019-04-14T01:06:27.989Z,8.40
2019-04-14T01:08:55.398Z,8.47
2019-04-14T01:11:22.495Z,8.17
2019-04-14T01:13:48.746Z,8.77
2019-04-14T01:16:19.877Z,8.23
2019-04-14T01:18:43.169Z,8.27
2019-04-14T01:21:09.348Z,8.50
2019-04-14T01:23:36.935Z,8.20
2019-04-14T01:26:04.936Z,8.83
2019-04-14T01:28:32.890Z,8.43
2019-04-14T01:30:59.595Z,8.80
2019-04-14T01:33:25.648Z,8.57
2019-04-14T01:35:51.730Z,8.80
2019-04-14T01:38:18.995Z,8.20
2019-04-14T01:40:46.675Z,8.00
2019-04-14T01:43:14.507Z,8.87
2019-04-14T01:45:42.531Z,9.00
2019-04-14T01:48:09.027Z,7.77
2019-04-14T01:50:40.878Z,8.80
2019-04-14T01:53:18.403Z,8.37
2019-04-14T01:55:52.671Z,8.73
2019-04-14T01:58:20.841Z,8.63
2019-04-14T02:01:01.902Z,8.40
2019-04-14T02:03:28.190Z,8.50
2019-04-14T02:05:54.595Z,8.37
2019-04-14T02:08:21.978Z,9.33
2019-04-14T02:10:49.684Z,8.57
2019-04-14T02:13:15.981Z,8.50
2019-04-14T02:15:42.153Z,7.83
2019-04-14T02:18:09.894Z,8.50
2019-04-14T02:20:36.326Z,8.70
2019-04-14T02:23:03.894Z,8.90
2019-04-14T02:25:31.653Z,8.77
2019-04-14T02:27:58.429Z,8.23
2019-04-14T02:30:30.021Z,9.37
2019-04-14T02:33:27.383Z,9.00
2019-04-14T02:36:06.034Z,8.07
2019-04-14T02:38:29.560Z,8.27
2019-04-14T02:40:45.974Z,8.83
2019-04-14T02:43:14.532Z,8.70
2019-04-14T02:48:14.894Z,9.20
2019-04-14T02:50:38.687Z,9.60
2019-04-14T02:53:10.942Z,8.60
2019-04-14T02:55:31.835Z,9.10
2019-04-14T02:58:07.006Z,9.30
2019-04-14T03:03:16.060Z,9.63
2019-04-14T03:05:35.816Z,8.77
2019-04-14T03:08:04.285Z,8.87
2019-04-14T03:10:31.930Z,8.40
2019-04-14T03:13:09.229Z,8.90
2019-04-14T03:15:25.316Z,8.60
2019-04-14T03:20:59.552Z,8.93
2019-04-14T03:23:53.391Z,9.50
2019-04-14T03:26:06.352Z,9.40
2019-04-14T03:28:40.336Z,8.90
2019-04-14T03:38:45.202Z,9.40
2019-04-14T03:41:01.828Z,9.20
2019-04-14T03:46:04.874Z,9.10
2019-04-14T03:50:55.143Z,9.63
2019-04-14T03:53:22.140Z,9.10
2019-04-14T03:55:53.841Z,9.10
2019-04-14T03:58:14.578Z,9.90
2019-04-14T04:00:42.217Z,8.37
2019-04-14T04:03:08.791Z,8.87
2019-04-14T04:05:35.231Z,9.10
2019-04-14T04:08:02.714Z,8.13
2019-04-14T04:10:29.243Z,9.13
2019-04-14T04:12:55.484Z,8.57
2019-04-14T04:15:21.563Z,8.70
2019-04-14T04:17:49.936Z,9.27
2019-04-14T04:20:19.547Z,9.07
2019-04-14T04:22:48.429Z,9.27
2019-04-14T04:25:20.337Z,9.80
2019-04-14T04:28:03.983Z,8.97
2019-04-14T04:30:49.417Z,9.97
2019-04-14T04:33:21.804Z,9.20
2019-04-14T04:35:50.577Z,9.37
2019-04-14T04:38:35.572Z,9.00
2019-04-14T04:41:03.653Z,9.87
2019-04-14T04:43:31.844Z,9.20
2019-04-14T04:45:58.236Z,9.67
2019-04-14T04:48:24.417Z,7.90
2019-04-14T04:50:50.481Z,10.10
2019-04-14T04:53:17.996Z,8.90
2019-04-14T04:55:45.979Z,9.83
2019-04-14T04:58:13.119Z,9.87
2019-04-14T05:00:39.494Z,8.80
2019-04-14T05:03:06.509Z,9.00
2019-04-14T05:06:11.291Z,9.40
2019-04-14T05:08:43.525Z,9.27
2019-04-14T05:11:14.463Z,9.50
2019-04-14T05:13:42.429Z,9.23
2019-04-14T05:16:10.698Z,9.83
2019-04-14T05:18:37.728Z,9.17
2019-04-14T05:21:05.965Z,10.30
2019-04-14T05:23:34.230Z,9.10
2019-04-14T05:26:01.103Z,9.33
2019-04-14T05:28:27.208Z,9.67
2019-04-14T05:30:54.580Z,10.43
2019-04-14T05:33:21.308Z,10.90
2019-04-14T05:35:48.754Z,11.13
2019-04-14T05:38:16.967Z,10.30
2019-04-14T05:40:44.983Z,11.00
2019-04-14T05:43:11.422Z,10.33
2019-04-14T05:45:37.718Z,9.70
2019-04-14T05:48:05.253Z,9.90
2019-04-14T05:50:31.631Z,9.30
2019-04-14T05:52:57.920Z,10.27
2019-04-14T05:55:24.763Z,9.20
2019-04-14T05:57:50.843Z,10.20
2019-04-14T06:00:19.172Z,9.47
2019-04-14T06:02:46.313Z,9.97
2019-04-14T06:05:14.473Z,9.73
2019-04-14T06:07:41.124Z,10.00
2019-04-14T06:10:08.007Z,9.47
2019-04-14T06:12:34.065Z,9.53
2019-04-14T06:15:00.475Z,9.40
2019-04-14T06:17:26.560Z,10.20
2019-04-14T06:19:53.284Z,9.40
2019-04-14T06:22:19.620Z,8.87
2019-04-14T06:24:45.943Z,9.77
2019-04-14T06:27:12.365Z,10.43
2019-04-14T06:29:38.447Z,9.60
2019-04-14T06:32:24.744Z,10.00
2019-04-14T06:35:11.111Z,9.23
2019-04-14T06:37:39.123Z,9.27
2019-04-14T06:40:07.500Z,10.03
2019-04-14T06:42:33.945Z,8.87
2019-04-14T06:44:59.993Z,9.43
2019-04-14T06:47:26.333Z,9.27
2019-04-14T06:49:52.660Z,9.50
2019-04-14T06:52:19.000Z,9.90
2019-04-14T06:54:45.071Z,9.57
2019-04-14T06:57:11.118Z,8.80
2019-04-14T06:59:37.470Z,10.30
2019-04-14T07:02:03.624Z,8.37
2019-04-14T07:04:29.672Z,9.40
2019-04-14T07:06:55.748Z,9.07
2019-04-14T07:09:22.479Z,9.50
2019-04-14T07:11:48.566Z,9.10
2019-04-14T07:14:15.240Z,11.10
2019-04-14T07:16:41.324Z,10.07
2019-04-14T07:19:07.794Z,9.60
2019-04-14T07:21:33.871Z,9.70
2019-04-14T07:24:00.268Z,9.10
2019-04-14T07:26:26.587Z,9.20
2019-04-14T07:28:56.920Z,9.90
2019-04-14T07:31:23.032Z,9.00
2019-04-14T07:34:02.705Z,9.00
2019-04-14T07:36:36.997Z,9.57
2019-04-14T07:39:23.496Z,9.10
2019-04-14T07:41:57.916Z,8.83
2019-04-14T07:44:28.903Z,9.73
2019-04-14T07:46:56.851Z,9.77
2019-04-14T07:49:33.802Z,8.83
2019-04-14T07:52:04.773Z,8.80
2019-04-14T07:54:33.116Z,9.77
2019-04-14T07:57:18.184Z,9.43
2019-04-14T07:59:52.506Z,10.70
2019-04-14T08:02:20.451Z,9.83
2019-04-14T08:04:48.408Z,9.43
2019-04-14T08:07:15.980Z,9.30
2019-04-14T08:09:42.334Z,8.97
2019-04-14T08:12:08.756Z,9.83
2019-04-14T08:14:35.088Z,10.30
2019-04-14T08:17:01.528Z,9.93
2019-04-14T08:19:27.688Z,9.60
2019-04-14T08:21:53.742Z,9.83
2019-04-14T08:24:20.533Z,9.90
2019-04-14T08:26:46.939Z,9.83
2019-04-14T08:29:13.374Z,10.53
2019-04-14T08:31:39.425Z,9.83
2019-04-14T08:34:05.827Z,9.10
2019-04-14T08:36:33.350Z,9.30
2019-04-14T08:38:59.811Z,9.43
2019-04-14T08:41:28.189Z,9.27
2019-04-14T08:44:01.961Z,8.93
2019-04-14T08:46:30.278Z,9.77
2019-04-14T08:49:01.728Z,10.17
2019-04-14T08:51:35.287Z,9.63
2019-04-14T08:54:09.412Z,9.83
2019-04-14T08:56:37.421Z,9.93
2019-04-14T08:59:05.740Z,10.17
2019-04-14T09:01:33.691Z,9.53
2019-04-14T09:04:18.419Z,10.07
2019-04-14T09:07:01.372Z,9.10
2019-04-14T09:09:29.389Z,10.50
2019-04-14T09:12:00.136Z,9.87
2019-04-14T09:14:26.244Z,9.50
2019-04-14T09:16:52.594Z,9.63
2019-04-14T09:19:19.434Z,10.00
2019-04-14T09:21:45.603Z,9.87
2019-04-14T09:24:11.657Z,9.77
2019-04-14T09:26:37.791Z,9.07
2019-04-14T09:29:03.843Z,9.53
2019-04-14T09:31:30.266Z,9.83
2019-04-14T09:33:56.369Z,8.87
2019-04-14T09:36:22.620Z,8.97
2019-04-14T09:38:49.779Z,9.33
2019-04-14T09:41:16.195Z,8.80
2019-04-14T09:43:42.298Z,10.07
2019-04-14T09:46:08.358Z,9.90
2019-04-14T09:48:34.414Z,9.60
2019-04-14T09:51:05.005Z,9.30
2019-04-14T09:53:28.543Z,9.77
2019-04-14T09:55:54.698Z,9.83
2019-04-14T09:58:21.016Z,9.10
2019-04-14T10:00:47.462Z,9.87
2019-04-14T10:03:13.495Z,8.83
2019-04-14T10:05:39.906Z,9.70
2019-04-14T10:08:06.955Z,8.80
2019-04-14T10:10:33.172Z,8.77
2019-04-14T10:12:59.607Z,9.10
2019-04-14T10:15:26.351Z,10.30
2019-04-14T10:17:52.886Z,9.83
2019-04-14T10:20:18.998Z,9.07
2019-04-14T10:22:45.449Z,9.07
2019-04-14T10:25:11.496Z,9.27
2019-04-14T10:27:37.792Z,9.10
2019-04-14T10:30:07.401Z,9.50
2019-04-14T10:32:33.452Z,9.07
2019-04-14T10:34:59.568Z,9.83
2019-04-14T10:37:25.988Z,9.40
2019-04-14T10:39:52.714Z,8.23
2019-04-14T10:42:19.152Z,8.87
2019-04-14T10:44:45.443Z,9.97
2019-04-14T10:47:11.815Z,9.50
2019-04-14T10:49:37.870Z,8.70
2019-04-14T10:52:04.079Z,8.97
2019-04-14T10:54:30.491Z,9.67
2019-04-14T10:56:56.824Z,9.00
2019-04-14T10:59:22.939Z,9.57
2019-04-14T11:01:48.985Z,9.00
2019-04-14T11:04:15.093Z,9.13
2019-04-14T11:06:43.116Z,9.17
2019-04-14T11:09:14.156Z,9.17
2019-04-14T11:11:40.679Z,9.07
2019-04-14T11:14:07.072Z,9.63
2019-04-14T11:16:33.115Z,9.23
2019-04-14T11:18:59.228Z,9.83
2019-04-14T11:21:25.652Z,8.97
2019-04-14T11:23:51.865Z,9.47
2019-04-14T11:26:18.209Z,9.03
2019-04-14T11:28:44.538Z,8.70
2019-04-14T11:31:11.845Z,10.20
2019-04-14T11:33:56.393Z,10.13
2019-04-14T11:36:24.403Z,9.87
2019-04-14T11:38:55.508Z,8.90
2019-04-14T11:41:23.527Z,9.03
2019-04-14T11:43:49.935Z,9.13
2019-04-14T11:46:16.052Z,8.90
2019-04-14T11:48:42.416Z,8.87
2019-04-14T11:51:08.780Z,8.80
2019-04-14T11:53:35.279Z,9.07
2019-04-14T11:56:01.328Z,9.03
2019-04-14T11:58:29.151Z,9.57
2019-04-14T12:01:12.295Z,9.40
2019-04-14T12:03:52.347Z,9.60
2019-04-14T12:06:26.083Z,9.80
2019-04-14T12:08:54.807Z,9.93
2019-04-14T12:11:21.876Z,9.80
2019-04-14T12:13:47.979Z,9.70
2019-04-14T12:16:14.399Z,9.40
2019-04-14T12:18:41.179Z,9.07
2019-04-14T12:21:07.611Z,10.40
2019-04-14T12:23:34.045Z,10.87
2019-04-14T12:26:05.594Z,9.77
2019-04-14T12:28:28.751Z,9.93
2019-04-14T12:30:55.445Z,9.60
2019-04-14T12:33:22.841Z,10.00
2019-04-14T12:35:49.171Z,10.50
2019-04-14T12:38:15.285Z,10.20
2019-04-14T12:40:42.037Z,9.83
2019-04-14T12:43:19.528Z,10.20
2019-04-14T12:45:50.375Z,8.97
2019-04-14T12:48:24.148Z,9.03
2019-04-14T12:50:52.106Z,8.67
2019-04-14T12:53:18.463Z,10.13
2019-04-14T12:55:44.516Z,8.63
2019-04-14T12:58:12.840Z,9.70
2019-04-14T13:00:52.795Z,9.87
2019-04-14T13:03:20.683Z,9.07
2019-04-14T13:05:46.727Z,9.90
2019-04-14T13:08:12.775Z,9.90
2019-04-14T13:10:38.891Z,9.50
2019-04-14T13:13:05.245Z,9.70
2019-04-14T13:15:31.351Z,9.40
2019-04-14T13:17:57.739Z,10.27
2019-04-14T13:20:23.846Z,7.90
2019-04-14T13:22:49.959Z,10.63
2019-04-14T13:25:16.380Z,8.57
2019-04-14T13:27:42.748Z,10.17
2019-04-14T13:30:13.115Z,9.13
2019-04-14T13:32:39.915Z,8.60
2019-04-14T13:35:06.265Z,9.53
2019-04-14T13:37:32.676Z,9.83
2019-04-14T13:39:59.008Z,9.23
2019-04-14T13:42:25.479Z,8.07
2019-04-14T13:44:51.872Z,9.00
2019-04-14T13:47:18.317Z,9.30
2019-04-14T13:49:44.360Z,8.57
2019-04-14T13:52:10.766Z,8.50
2019-04-14T13:54:36.876Z,9.40
2019-04-14T13:57:03.295Z,8.60
2019-04-14T13:59:29.402Z,8.57
2019-04-14T14:01:55.771Z,8.97
2019-04-14T14:04:22.220Z,8.60
2019-04-14T14:06:48.638Z,9.53
2019-04-14T14:09:14.744Z,8.50
2019-04-14T14:11:45.809Z,9.47
2019-04-14T14:14:14.185Z,8.90
2019-04-14T14:16:48.391Z,9.20
2019-04-14T14:19:16.676Z,8.80
2019-04-14T14:21:44.623Z,8.80
2019-04-14T14:24:19.265Z,8.67
2019-04-14T14:26:47.217Z,8.73
2019-04-14T14:29:13.267Z,9.43
2019-04-14T14:31:39.704Z,8.67
2019-04-14T14:34:06.127Z,9.57
2019-04-14T14:36:32.443Z,8.77
2019-04-14T14:38:58.552Z,9.07
2019-04-14T14:41:24.900Z,8.53
2019-04-14T14:43:51.339Z,8.00
2019-04-14T14:46:36.927Z,8.73
2019-04-14T14:49:11.744Z,8.87
2019-04-14T14:51:42.233Z,9.10
2019-04-14T14:54:08.649Z,8.30
2019-04-14T14:56:34.755Z,8.87
2019-04-14T14:59:00.868Z,8.93
2019-04-14T15:01:27.027Z,8.00
2019-04-14T15:03:53.133Z,9.27
2019-04-14T15:06:19.188Z,10.13
2019-04-14T15:08:45.291Z,9.93
2019-04-14T15:11:11.699Z,9.53
2019-04-14T15:13:38.111Z,8.97
2019-04-14T15:16:04.322Z,9.37
2019-04-14T15:18:30.675Z,9.13
2019-04-14T15:20:57.166Z,9.10
2019-04-14T15:23:25.135Z,9.70
2019-04-14T15:25:51.723Z,9.50
2019-04-14T15:28:17.771Z,9.17
2019-04-14T15:30:43.884Z,9.40
2019-04-14T15:33:10.183Z,10.13
2019-04-14T15:35:36.923Z,10.27
2019-04-14T15:38:04.175Z,9.33
2019-04-14T15:40:30.224Z,9.50
2019-04-14T15:42:56.934Z,10.00
2019-04-14T15:45:23.475Z,8.80
2019-04-14T15:47:49.523Z,8.30
2019-04-14T15:50:15.642Z,8.97
2019-04-14T15:52:41.687Z,8.90
2019-04-14T15:55:08.485Z,9.13
2019-04-14T15:57:45.676Z,9.47
2019-04-14T16:00:19.880Z,9.50
2019-04-14T16:03:04.440Z,10.00
2019-04-14T16:05:32.707Z,9.67
2019-04-14T16:08:00.684Z,9.40
2019-04-14T16:10:32.180Z,9.17
2019-04-14T16:13:16.612Z,9.87
2019-04-14T16:16:01.088Z,8.90
2019-04-14T16:18:45.980Z,9.07
2019-04-14T16:21:12.451Z,9.17
2019-04-14T16:23:49.908Z,9.60
2019-04-14T16:26:14.382Z,10.30
2019-04-14T16:28:42.601Z,10.43
2019-04-14T16:31:16.143Z,9.93
2019-04-14T16:34:01.897Z,9.87
2019-04-14T16:36:28.208Z,10.30
2019-04-14T16:38:54.652Z,10.23
2019-04-14T16:41:21.079Z,9.70
2019-04-14T16:43:47.556Z,10.20
2019-04-14T16:46:13.601Z,9.93
2019-04-14T16:48:39.713Z,9.73
2019-04-14T16:51:07.664Z,9.80
2019-04-14T16:53:36.043Z,8.87
2019-04-14T16:56:13.372Z,8.73
2019-04-14T16:58:41.375Z,8.40
2019-04-14T17:01:09.636Z,9.17
2019-04-14T17:03:35.740Z,8.73
2019-04-14T17:06:02.496Z,8.80
2019-04-14T17:08:28.924Z,9.00
2019-04-14T17:10:54.976Z,8.67
2019-04-14T17:13:22.812Z,8.70
2019-04-14T17:15:59.999Z,8.33
2019-04-14T17:18:34.202Z,8.90
2019-04-14T17:21:08.450Z,8.70
2019-04-14T17:23:42.684Z,8.73
2019-04-14T17:26:10.703Z,8.90
2019-04-14T17:28:39.024Z,9.73
2019-04-14T17:31:07.048Z,8.67
2019-04-14T17:33:44.091Z,8.80
2019-04-14T17:36:30.199Z,9.13
2019-04-14T17:38:58.156Z,8.67
2019-04-14T17:41:26.177Z,8.90
2019-04-14T17:43:54.131Z,8.27
2019-04-14T17:46:38.903Z,8.23
2019-04-14T17:49:22.060Z,9.47
2019-04-14T17:51:50.409Z,8.40
2019-04-14T17:54:30.357Z,7.60
2019-04-14T17:57:04.712Z,8.70
2019-04-14T17:59:41.854Z,9.07
2019-04-14T18:02:19.144Z,8.60
2019-04-14T18:04:59.395Z,8.03
2019-04-14T18:07:27.356Z,9.13
2019-04-14T18:09:58.120Z,9.87
2019-04-14T18:12:31.863Z,9.33
2019-04-14T18:15:11.981Z,8.40
2019-04-14T18:17:40.532Z,7.90
2019-04-14T18:20:18.843Z,8.70
2019-04-14T18:22:44.896Z,8.43
2019-04-14T18:25:12.065Z,8.87
2019-04-14T18:27:42.776Z,8.30
2019-04-14T18:30:21.407Z,8.13
2019-04-14T18:33:04.515Z,8.30
2019-04-14T18:35:38.715Z,8.60
2019-04-14T18:38:23.575Z,7.97
2019-04-14T18:40:51.583Z,8.63
2019-04-14T18:43:36.259Z,8.60
2019-04-14T18:46:16.764Z,8.23
2019-04-14T18:48:50.868Z,9.33
2019-04-14T18:51:24.409Z,9.00
2019-04-14T18:53:52.363Z,8.30
2019-04-14T18:56:39.009Z,8.97
2019-04-14T18:59:22.478Z,8.60
2019-04-14T19:01:56.795Z,8.80
2019-04-14T19:04:22.914Z,8.23
2019-04-14T19:06:49.251Z,8.23
2019-04-14T19:09:15.725Z,8.30
2019-04-14T19:11:58.681Z,7.17
2019-04-14T19:14:26.980Z,8.60
2019-04-14T19:17:01.194Z,8.37
2019-04-14T19:19:27.302Z,8.43
2019-04-14T19:21:53.648Z,8.23
2019-04-14T19:24:19.776Z,8.87
2019-04-14T19:26:46.615Z,8.33
2019-04-14T19:29:13.251Z,8.30
2019-04-14T19:31:39.359Z,8.80
2019-04-14T19:34:05.847Z,9.10
2019-04-14T19:36:31.898Z,8.53
2019-04-14T19:38:58.008Z,7.93
2019-04-14T19:41:24.415Z,8.90
2019-04-14T19:43:50.533Z,8.20
2019-04-14T19:46:16.597Z,8.13
2019-04-14T19:48:42.976Z,8.40
2019-04-14T19:51:09.405Z,8.10
2019-04-14T19:53:35.455Z,8.43
2019-04-14T19:56:01.560Z,9.03
2019-04-14T19:58:27.882Z,8.20
2019-04-14T20:00:53.992Z,8.00
2019-04-14T20:03:20.044Z,8.60
2019-04-14T20:05:46.465Z,8.27
2019-04-14T20:08:12.567Z,7.47
2019-04-14T20:10:38.820Z,8.70
2019-04-14T20:13:05.286Z,8.10
2019-04-14T20:15:34.148Z,8.40
2019-04-14T20:18:18.651Z,8.33
2019-04-14T20:21:05.168Z,8.30
2019-04-14T20:23:33.473Z,7.80
2019-04-14T20:26:17.712Z,7.97
2019-04-14T20:28:45.781Z,8.90
2019-04-14T20:31:31.782Z,7.97
2019-04-14T20:33:57.937Z,9.23
2019-04-14T20:36:23.985Z,8.33
2019-04-14T20:38:50.092Z,8.57
2019-04-14T20:41:16.145Z,8.40
2019-04-14T20:43:42.508Z,7.73
2019-04-14T20:46:08.603Z,7.70
2019-04-14T20:48:34.665Z,8.10
2019-04-14T20:51:01.140Z,8.70
2019-04-14T20:53:27.192Z,8.27
2019-04-14T20:55:53.953Z,8.57
2019-04-14T20:58:20.402Z,8.70
2019-04-14T21:00:47.224Z,8.03
2019-04-14T21:03:18.207Z,7.07
2019-04-14T21:05:46.159Z,8.00
2019-04-14T21:08:20.191Z,8.90
2019-04-14T21:10:50.929Z,7.83
2019-04-14T21:13:34.220Z,8.10
2019-04-14T21:16:12.934Z,8.50
2019-04-14T21:18:40.915Z,7.93
2019-04-14T21:21:11.836Z,8.87
2019-04-14T21:26:47.931Z,7.80
2019-04-14T21:29:24.875Z,7.90
2019-04-14T21:31:53.167Z,7.93
2019-04-14T21:34:21.439Z,8.13
2019-04-14T21:36:55.487Z,7.87
2019-04-14T21:39:40.610Z,7.43
2019-04-14T21:42:08.085Z,7.90
2019-04-14T21:44:34.167Z,8.63
2019-04-14T21:47:00.235Z,7.13
2019-04-14T21:49:26.380Z,8.10
2019-04-14T21:51:57.488Z,7.60
2019-04-14T21:54:23.572Z,8.00
2019-04-14T21:57:08.887Z,8.20
2019-04-14T21:59:42.421Z,7.60
2019-04-14T22:02:26.895Z,8.20
2019-04-14T22:04:55.115Z,7.70
2019-04-14T22:07:30.130Z,7.00
2019-04-14T22:09:58.101Z,7.27
2019-04-14T22:12:24.559Z,7.40
2019-04-14T22:14:50.613Z,6.97
2019-04-14T22:17:17.532Z,8.20
2019-04-14T22:19:43.971Z,7.20
2019-04-14T22:22:10.058Z,7.63
2019-04-14T22:24:36.731Z,7.07
2019-04-14T22:27:02.798Z,7.80
2019-04-14T22:29:28.907Z,7.20
2019-04-14T22:31:55.307Z,7.37
2019-04-14T22:34:22.034Z,7.60
2019-04-14T22:36:48.108Z,7.10
2019-04-14T22:39:16.451Z,7.17
2019-04-14T22:41:42.798Z,7.80
2019-04-14T22:44:08.849Z,7.03
2019-04-14T22:46:35.327Z,7.70
2019-04-14T22:49:01.409Z,6.97
2019-04-14T22:51:27.800Z,6.97
2019-04-14T22:53:53.875Z,6.90
2019-04-14T22:56:19.969Z,6.97
2019-04-14T22:58:46.044Z,7.07
2019-04-14T23:01:14.013Z,7.70
2019-04-14T23:06:49.172Z,7.70
2019-04-14T23:09:22.982Z,6.97
2019-04-14T23:11:51.689Z,7.37
2019-04-14T23:14:19.660Z,7.50
2019-04-14T23:16:50.242Z,6.93
2019-04-14T23:19:18.540Z,7.60
2019-04-14T23:21:46.504Z,7.30
2019-04-14T23:24:14.502Z,6.20
2019-04-14T23:26:51.760Z,6.70
2019-04-14T23:29:08.678Z,6.40
2019-04-14T23:31:34.757Z,7.10
2019-04-14T23:34:00.928Z,6.40
2019-04-14T23:36:27.369Z,6.53
2019-04-14T23:38:53.789Z,6.30
2019-04-14T23:41:19.980Z,7.00
2019-04-14T23:43:46.055Z,6.70
2019-04-14T23:46:12.511Z,6.67
2019-04-14T23:48:38.896Z,6.93
2019-04-14T23:51:05.227Z,6.13
2019-04-14T23:53:31.574Z,7.20
2019-04-14T23:55:57.619Z,6.50
2019-04-14T23:58:24.079Z,6.53
